sensor_id;sensor_type;location;lat;lon;timestamp;temperature;humidity
11609;DHT22;5860;52.018;8.536;2023-08-06T00:02:35;14.20;99.90
11609;DHT22;5860;52.018;8.536;2023-08-06T00:05:06;14.20;99.90
11609;DHT22;5860;52.018;8.536;2023-08-06T00:07:33;14.20;99.90
11609;DHT22;5860;52.018;8.536;2023-08-06T00:10:36;14.10;99.90
11609;DHT22;5860;52.018;8.536;2023-08-06T00:13:20;14.20;99.90
11609;DHT22;5860;52.018;8.536;2023-08-06T00:15:47;14.20;99.90
11609;DHT22;5860;52.018;8.536;2023-08-06T00:18:28;14.20;99.90
11609;DHT22;5860;52.018;8.536;2023-08-06T00:20:56;14.20;99.90
11609;DHT22;5860;52.018;8.536;2023-08-06T00:23:36;14.20;99.90
11609;DHT22;5860;52.018;8.536;2023-08-06T00:26:12;14.20;99.90
11609;DHT22;5860;52.018;8.536;2023-08-06T00:28:39;14.20;99.90
11609;DHT22;5860;52.018;8.536;2023-08-06T00:31:06;14.20;99.90
11609;DHT22;5860;52.018;8.536;2023-08-06T00:33:33;14.30;99.90
11609;DHT22;5860;52.018;8.536;2023-08-06T00:36:00;14.20;99.90
11609;DHT22;5860;52.018;8.536;2023-08-06T00:38:27;14.20;99.90
11609;DHT22;5860;52.018;8.536;2023-08-06T00:40:54;14.20;99.90
11609;DHT22;5860;52.018;8.536;2023-08-06T00:43:21;14.30;99.90
11609;DHT22;5860;52.018;8.536;2023-08-06T00:45:48;14.20;99.90
11609;DHT22;5860;52.018;8.536;2023-08-06T00:48:15;14.20;99.90
11609;DHT22;5860;52.018;8.536;2023-08-06T00:50:42;14.20;99.90
11609;DHT22;5860;52.018;8.536;2023-08-06T00:53:09;14.20;99.90
11609;DHT22;5860;52.018;8.536;2023-08-06T00:55:36;14.20;99.90
11609;DHT22;5860;52.018;8.536;2023-08-06T00:58:04;14.20;99.90
11609;DHT22;5860;52.018;8.536;2023-08-06T01:00:31;14.20;99.90
11609;DHT22;5860;52.018;8.536;2023-08-06T01:02:58;14.20;99.90
11609;DHT22;5860;52.018;8.536;2023-08-06T01:05:25;14.30;99.90
11609;DHT22;5860;52.018;8.536;2023-08-06T01:14:06;14.20;99.90
11609;DHT22;5860;52.018;8.536;2023-08-06T01:16:35;14.20;99.90
11609;DHT22;5860;52.018;8.536;2023-08-06T01:19:03;14.20;99.90
11609;DHT22;5860;52.018;8.536;2023-08-06T01:21:30;14.20;99.90
11609;DHT22;5860;52.018;8.536;2023-08-06T01:23:57;14.20;99.90
11609;DHT22;5860;52.018;8.536;2023-08-06T01:26:30;14.30;99.90
11609;DHT22;5860;52.018;8.536;2023-08-06T01:32:08;14.30;99.90
11609;DHT22;5860;52.018;8.536;2023-08-06T01:34:38;14.30;99.90
11609;DHT22;5860;52.018;8.536;2023-08-06T01:37:06;14.30;99.90
11609;DHT22;5860;52.018;8.536;2023-08-06T01:39:33;14.40;99.90
11609;DHT22;5860;52.018;8.536;2023-08-06T01:42:00;14.30;99.90
11609;DHT22;5860;52.018;8.536;2023-08-06T01:44:28;14.30;99.90
11609;DHT22;5860;52.018;8.536;2023-08-06T01:46:55;14.30;99.90
11609;DHT22;5860;52.018;8.536;2023-08-06T01:49:22;14.30;99.90
11609;DHT22;5860;52.018;8.536;2023-08-06T01:51:48;14.30;99.90
11609;DHT22;5860;52.018;8.536;2023-08-06T01:54:16;14.30;99.90
11609;DHT22;5860;52.018;8.536;2023-08-06T01:56:43;14.30;99.90
11609;DHT22;5860;52.018;8.536;2023-08-06T01:59:10;14.40;99.90
11609;DHT22;5860;52.018;8.536;2023-08-06T02:01:36;14.30;99.90
11609;DHT22;5860;52.018;8.536;2023-08-06T02:04:03;14.30;99.90
11609;DHT22;5860;52.018;8.536;2023-08-06T02:06:30;14.30;99.90
11609;DHT22;5860;52.018;8.536;2023-08-06T02:08:57;14.30;99.90
11609;DHT22;5860;52.018;8.536;2023-08-06T02:11:24;14.30;99.90
11609;DHT22;5860;52.018;8.536;2023-08-06T02:13:51;14.30;99.90
11609;DHT22;5860;52.018;8.536;2023-08-06T02:16:18;14.30;99.90
11609;DHT22;5860;52.018;8.536;2023-08-06T02:18:44;14.30;99.90
11609;DHT22;5860;52.018;8.536;2023-08-06T02:21:11;14.20;99.90
11609;DHT22;5860;52.018;8.536;2023-08-06T02:23:38;14.20;99.90
11609;DHT22;5860;52.018;8.536;2023-08-06T02:26:05;14.20;99.90
11609;DHT22;5860;52.018;8.536;2023-08-06T02:28:32;14.20;99.90
11609;DHT22;5860;52.018;8.536;2023-08-06T02:31:00;14.10;99.90
11609;DHT22;5860;52.018;8.536;2023-08-06T02:33:26;14.00;99.90
11609;DHT22;5860;52.018;8.536;2023-08-06T02:36:00;14.00;99.90
11609;DHT22;5860;52.018;8.536;2023-08-06T02:38:28;13.90;99.90
11609;DHT22;5860;52.018;8.536;2023-08-06T02:40:55;13.90;99.90
11609;DHT22;5860;52.018;8.536;2023-08-06T02:43:22;13.90;99.90
11609;DHT22;5860;52.018;8.536;2023-08-06T02:45:49;13.80;99.90
11609;DHT22;5860;52.018;8.536;2023-08-06T02:48:16;13.80;99.90
11609;DHT22;5860;52.018;8.536;2023-08-06T02:50:44;13.80;99.90
11609;DHT22;5860;52.018;8.536;2023-08-06T02:53:11;13.80;99.90
11609;DHT22;5860;52.018;8.536;2023-08-06T02:55:45;13.90;99.90
11609;DHT22;5860;52.018;8.536;2023-08-06T02:58:15;13.90;99.90
11609;DHT22;5860;52.018;8.536;2023-08-06T03:00:42;13.90;99.90
11609;DHT22;5860;52.018;8.536;2023-08-06T03:03:10;13.90;99.90
11609;DHT22;5860;52.018;8.536;2023-08-06T03:05:37;13.90;99.90
11609;DHT22;5860;52.018;8.536;2023-08-06T03:08:04;13.80;99.90
11609;DHT22;5860;52.018;8.536;2023-08-06T03:10:31;13.80;99.90
11609;DHT22;5860;52.018;8.536;2023-08-06T03:12:58;13.70;99.90
11609;DHT22;5860;52.018;8.536;2023-08-06T03:15:26;13.70;99.90
11609;DHT22;5860;52.018;8.536;2023-08-06T03:17:55;13.70;99.90
11609;DHT22;5860;52.018;8.536;2023-08-06T03:20:23;13.70;99.90
11609;DHT22;5860;52.018;8.536;2023-08-06T03:22:50;13.70;99.90
11609;DHT22;5860;52.018;8.536;2023-08-06T03:25:17;13.70;99.90
11609;DHT22;5860;52.018;8.536;2023-08-06T03:27:44;13.70;99.90
11609;DHT22;5860;52.018;8.536;2023-08-06T03:30:11;13.60;99.90
11609;DHT22;5860;52.018;8.536;2023-08-06T03:32:38;13.70;99.90
11609;DHT22;5860;52.018;8.536;2023-08-06T03:35:06;13.60;99.90
11609;DHT22;5860;52.018;8.536;2023-08-06T03:37:33;13.60;99.90
11609;DHT22;5860;52.018;8.536;2023-08-06T03:40:00;13.70;99.90
11609;DHT22;5860;52.018;8.536;2023-08-06T03:42:27;13.60;99.90
11609;DHT22;5860;52.018;8.536;2023-08-06T03:44:54;13.70;99.90
11609;DHT22;5860;52.018;8.536;2023-08-06T03:47:21;13.70;99.90
11609;DHT22;5860;52.018;8.536;2023-08-06T03:49:48;13.60;99.90
11609;DHT22;5860;52.018;8.536;2023-08-06T03:52:16;13.60;99.90
11609;DHT22;5860;52.018;8.536;2023-08-06T03:54:43;13.50;99.90
11609;DHT22;5860;52.018;8.536;2023-08-06T03:57:10;13.40;99.90
11609;DHT22;5860;52.018;8.536;2023-08-06T03:59:37;13.40;99.90
11609;DHT22;5860;52.018;8.536;2023-08-06T04:02:04;13.50;99.90
11609;DHT22;5860;52.018;8.536;2023-08-06T04:04:31;13.50;99.90
11609;DHT22;5860;52.018;8.536;2023-08-06T04:06:58;13.60;99.90
11609;DHT22;5860;52.018;8.536;2023-08-06T04:09:27;13.60;99.90
11609;DHT22;5860;52.018;8.536;2023-08-06T04:11:54;13.70;99.90
11609;DHT22;5860;52.018;8.536;2023-08-06T04:14:21;13.80;99.90
11609;DHT22;5860;52.018;8.536;2023-08-06T04:16:48;13.80;99.90
11609;DHT22;5860;52.018;8.536;2023-08-06T04:19:15;13.90;99.90
11609;DHT22;5860;52.018;8.536;2023-08-06T04:21:42;13.90;99.90
11609;DHT22;5860;52.018;8.536;2023-08-06T04:24:09;14.00;99.90
11609;DHT22;5860;52.018;8.536;2023-08-06T04:26:36;14.00;99.90
11609;DHT22;5860;52.018;8.536;2023-08-06T04:29:03;14.10;99.90
11609;DHT22;5860;52.018;8.536;2023-08-06T04:31:30;14.00;99.90
11609;DHT22;5860;52.018;8.536;2023-08-06T04:33:56;14.00;99.90
11609;DHT22;5860;52.018;8.536;2023-08-06T04:36:24;14.00;99.90
11609;DHT22;5860;52.018;8.536;2023-08-06T04:38:51;14.00;99.90
11609;DHT22;5860;52.018;8.536;2023-08-06T04:41:17;14.00;99.90
11609;DHT22;5860;52.018;8.536;2023-08-06T04:43:44;14.00;99.90
11609;DHT22;5860;52.018;8.536;2023-08-06T04:46:11;14.00;99.90
11609;DHT22;5860;52.018;8.536;2023-08-06T04:48:38;14.00;99.90
11609;DHT22;5860;52.018;8.536;2023-08-06T04:51:05;14.10;99.90
11609;DHT22;5860;52.018;8.536;2023-08-06T04:53:32;14.20;99.90
11609;DHT22;5860;52.018;8.536;2023-08-06T04:55:59;14.30;99.90
11609;DHT22;5860;52.018;8.536;2023-08-06T04:58:26;14.30;99.90
11609;DHT22;5860;52.018;8.536;2023-08-06T05:00:53;14.30;99.90
11609;DHT22;5860;52.018;8.536;2023-08-06T05:03:21;14.10;99.90
11609;DHT22;5860;52.018;8.536;2023-08-06T05:05:47;14.10;99.90
11609;DHT22;5860;52.018;8.536;2023-08-06T05:08:15;14.10;99.90
11609;DHT22;5860;52.018;8.536;2023-08-06T05:10:45;14.10;99.90
11609;DHT22;5860;52.018;8.536;2023-08-06T05:13:12;14.10;99.90
11609;DHT22;5860;52.018;8.536;2023-08-06T05:15:39;14.20;99.90
11609;DHT22;5860;52.018;8.536;2023-08-06T05:18:09;14.20;99.90
11609;DHT22;5860;52.018;8.536;2023-08-06T05:20:40;14.30;99.90
11609;DHT22;5860;52.018;8.536;2023-08-06T05:23:07;14.30;99.90
11609;DHT22;5860;52.018;8.536;2023-08-06T05:25:35;14.40;99.90
11609;DHT22;5860;52.018;8.536;2023-08-06T05:28:02;14.30;99.90
11609;DHT22;5860;52.018;8.536;2023-08-06T05:30:30;14.30;99.90
11609;DHT22;5860;52.018;8.536;2023-08-06T05:32:57;14.30;99.90
11609;DHT22;5860;52.018;8.536;2023-08-06T05:35:24;14.40;99.90
11609;DHT22;5860;52.018;8.536;2023-08-06T05:37:51;14.40;99.90
11609;DHT22;5860;52.018;8.536;2023-08-06T05:40:18;14.50;99.90
11609;DHT22;5860;52.018;8.536;2023-08-06T05:42:45;14.60;99.90
11609;DHT22;5860;52.018;8.536;2023-08-06T05:45:12;14.70;99.90
11609;DHT22;5860;52.018;8.536;2023-08-06T05:47:38;14.80;99.90
11609;DHT22;5860;52.018;8.536;2023-08-06T05:50:06;15.20;99.90
11609;DHT22;5860;52.018;8.536;2023-08-06T05:52:33;15.40;99.90
11609;DHT22;5860;52.018;8.536;2023-08-06T05:55:00;15.80;99.90
11609;DHT22;5860;52.018;8.536;2023-08-06T05:57:27;15.80;99.90
11609;DHT22;5860;52.018;8.536;2023-08-06T05:59:54;16.00;99.90
11609;DHT22;5860;52.018;8.536;2023-08-06T06:02:20;15.80;99.90
11609;DHT22;5860;52.018;8.536;2023-08-06T06:04:48;15.90;99.90
11609;DHT22;5860;52.018;8.536;2023-08-06T06:07:14;15.80;99.90
11609;DHT22;5860;52.018;8.536;2023-08-06T06:09:41;15.50;99.90
11609;DHT22;5860;52.018;8.536;2023-08-06T06:12:09;15.40;99.90
11609;DHT22;5860;52.018;8.536;2023-08-06T06:14:35;15.40;99.90
11609;DHT22;5860;52.018;8.536;2023-08-06T06:17:03;15.40;99.90
11609;DHT22;5860;52.018;8.536;2023-08-06T06:19:30;15.70;99.90
11609;DHT22;5860;52.018;8.536;2023-08-06T06:21:57;15.80;99.90
11609;DHT22;5860;52.018;8.536;2023-08-06T06:24:24;15.70;99.90
11609;DHT22;5860;52.018;8.536;2023-08-06T06:26:51;16.00;99.90
11609;DHT22;5860;52.018;8.536;2023-08-06T06:29:18;16.20;99.90
11609;DHT22;5860;52.018;8.536;2023-08-06T06:31:45;17.10;99.90
11609;DHT22;5860;52.018;8.536;2023-08-06T06:34:16;19.00;99.90
11609;DHT22;5860;52.018;8.536;2023-08-06T06:36:48;19.40;99.90
11609;DHT22;5860;52.018;8.536;2023-08-06T06:39:17;23.80;99.90
11609;DHT22;5860;52.018;8.536;2023-08-06T06:41:44;23.40;99.90
11609;DHT22;5860;52.018;8.536;2023-08-06T06:44:11;25.80;99.90
11609;DHT22;5860;52.018;8.536;2023-08-06T06:46:40;26.50;99.90
11609;DHT22;5860;52.018;8.536;2023-08-06T06:49:08;24.20;99.90
11609;DHT22;5860;52.018;8.536;2023-08-06T06:51:35;26.90;99.90
11609;DHT22;5860;52.018;8.536;2023-08-06T06:54:04;26.50;99.90
11609;DHT22;5860;52.018;8.536;2023-08-06T06:56:31;28.70;99.90
11609;DHT22;5860;52.018;8.536;2023-08-06T06:58:58;29.00;99.90
11609;DHT22;5860;52.018;8.536;2023-08-06T07:01:25;28.40;99.90
11609;DHT22;5860;52.018;8.536;2023-08-06T07:03:52;25.50;99.90
11609;DHT22;5860;52.018;8.536;2023-08-06T07:06:20;26.40;99.90
11609;DHT22;5860;52.018;8.536;2023-08-06T07:08:47;27.70;99.90
11609;DHT22;5860;52.018;8.536;2023-08-06T07:11:14;28.60;99.90
11609;DHT22;5860;52.018;8.536;2023-08-06T07:13:41;29.70;99.90
11609;DHT22;5860;52.018;8.536;2023-08-06T07:16:08;28.40;99.90
11609;DHT22;5860;52.018;8.536;2023-08-06T07:18:37;28.10;99.90
11609;DHT22;5860;52.018;8.536;2023-08-06T07:21:04;28.30;99.90
11609;DHT22;5860;52.018;8.536;2023-08-06T07:23:31;28.60;99.90
11609;DHT22;5860;52.018;8.536;2023-08-06T07:25:58;28.40;99.90
11609;DHT22;5860;52.018;8.536;2023-08-06T07:28:31;24.00;99.90
11609;DHT22;5860;52.018;8.536;2023-08-06T07:31:04;23.70;99.90
11609;DHT22;5860;52.018;8.536;2023-08-06T07:33:34;22.30;99.90
11609;DHT22;5860;52.018;8.536;2023-08-06T07:36:11;21.70;99.90
11609;DHT22;5860;52.018;8.536;2023-08-06T07:38:38;21.20;99.90
11609;DHT22;5860;52.018;8.536;2023-08-06T07:41:07;23.30;99.90
11609;DHT22;5860;52.018;8.536;2023-08-06T07:43:34;23.20;99.90
11609;DHT22;5860;52.018;8.536;2023-08-06T07:46:03;25.80;99.90
11609;DHT22;5860;52.018;8.536;2023-08-06T07:48:30;25.00;99.90
11609;DHT22;5860;52.018;8.536;2023-08-06T07:50:57;25.10;99.90
11609;DHT22;5860;52.018;8.536;2023-08-06T07:53:25;23.80;99.90
11609;DHT22;5860;52.018;8.536;2023-08-06T07:55:56;23.40;99.90
11609;DHT22;5860;52.018;8.536;2023-08-06T07:58:26;21.90;99.90
11609;DHT22;5860;52.018;8.536;2023-08-06T08:00:54;22.10;99.90
11609;DHT22;5860;52.018;8.536;2023-08-06T08:03:22;21.10;99.90
11609;DHT22;5860;52.018;8.536;2023-08-06T08:05:49;20.20;99.90
11609;DHT22;5860;52.018;8.536;2023-08-06T08:08:19;19.60;99.90
11609;DHT22;5860;52.018;8.536;2023-08-06T08:10:49;19.10;99.90
11609;DHT22;5860;52.018;8.536;2023-08-06T08:13:16;19.60;99.90
11609;DHT22;5860;52.018;8.536;2023-08-06T08:15:44;19.80;99.90
11609;DHT22;5860;52.018;8.536;2023-08-06T08:18:11;19.90;99.90
11609;DHT22;5860;52.018;8.536;2023-08-06T08:20:38;19.80;99.90
11609;DHT22;5860;52.018;8.536;2023-08-06T08:23:09;19.40;99.90
11609;DHT22;5860;52.018;8.536;2023-08-06T08:25:35;19.40;99.90
11609;DHT22;5860;52.018;8.536;2023-08-06T08:28:05;18.80;99.90
11609;DHT22;5860;52.018;8.536;2023-08-06T08:30:32;18.80;99.90
11609;DHT22;5860;52.018;8.536;2023-08-06T08:32:59;18.90;99.90
11609;DHT22;5860;52.018;8.536;2023-08-06T08:35:26;18.90;99.90
11609;DHT22;5860;52.018;8.536;2023-08-06T08:37:53;18.70;99.90
11609;DHT22;5860;52.018;8.536;2023-08-06T08:40:22;18.80;99.90
11609;DHT22;5860;52.018;8.536;2023-08-06T08:42:56;18.80;99.90
11609;DHT22;5860;52.018;8.536;2023-08-06T08:45:26;18.80;99.90
11609;DHT22;5860;52.018;8.536;2023-08-06T08:47:55;19.00;99.90
11609;DHT22;5860;52.018;8.536;2023-08-06T08:50:22;19.80;99.90
11609;DHT22;5860;52.018;8.536;2023-08-06T08:52:50;20.10;99.90
11609;DHT22;5860;52.018;8.536;2023-08-06T08:55:18;19.40;99.90
11609;DHT22;5860;52.018;8.536;2023-08-06T08:57:48;20.10;99.90
11609;DHT22;5860;52.018;8.536;2023-08-06T09:00:15;20.50;99.90
11609;DHT22;5860;52.018;8.536;2023-08-06T09:02:42;20.50;99.90
11609;DHT22;5860;52.018;8.536;2023-08-06T09:05:11;20.00;99.90
11609;DHT22;5860;52.018;8.536;2023-08-06T09:07:42;19.60;99.90
11609;DHT22;5860;52.018;8.536;2023-08-06T09:10:14;19.70;99.90
11609;DHT22;5860;52.018;8.536;2023-08-06T09:12:45;19.50;99.90
11609;DHT22;5860;52.018;8.536;2023-08-06T09:15:17;19.30;99.90
11609;DHT22;5860;52.018;8.536;2023-08-06T09:17:49;19.40;99.90
11609;DHT22;5860;52.018;8.536;2023-08-06T09:20:17;19.70;99.90
11609;DHT22;5860;52.018;8.536;2023-08-06T09:22:44;20.10;99.90
11609;DHT22;5860;52.018;8.536;2023-08-06T09:25:12;21.00;99.90
11609;DHT22;5860;52.018;8.536;2023-08-06T09:27:47;22.10;99.90
11609;DHT22;5860;52.018;8.536;2023-08-06T09:30:29;22.40;99.90
11609;DHT22;5860;52.018;8.536;2023-08-06T09:32:58;22.80;99.90
11609;DHT22;5860;52.018;8.536;2023-08-06T09:35:28;22.00;99.90
11609;DHT22;5860;52.018;8.536;2023-08-06T09:38:09;22.40;99.90
11609;DHT22;5860;52.018;8.536;2023-08-06T09:40:38;21.60;99.90
11609;DHT22;5860;52.018;8.536;2023-08-06T09:43:06;20.90;99.90
11609;DHT22;5860;52.018;8.536;2023-08-06T09:45:36;21.10;99.90
11609;DHT22;5860;52.018;8.536;2023-08-06T09:48:09;21.40;99.90
11609;DHT22;5860;52.018;8.536;2023-08-06T09:50:38;21.20;99.90
11609;DHT22;5860;52.018;8.536;2023-08-06T09:53:07;21.00;99.90
11609;DHT22;5860;52.018;8.536;2023-08-06T09:55:35;21.00;99.90
11609;DHT22;5860;52.018;8.536;2023-08-06T09:58:03;21.00;99.90
11609;DHT22;5860;52.018;8.536;2023-08-06T10:00:33;21.10;99.90
11609;DHT22;5860;52.018;8.536;2023-08-06T10:03:06;20.80;99.90
11609;DHT22;5860;52.018;8.536;2023-08-06T10:05:35;20.70;99.90
11609;DHT22;5860;52.018;8.536;2023-08-06T10:08:04;20.70;99.90
11609;DHT22;5860;52.018;8.536;2023-08-06T10:10:33;20.90;99.90
11609;DHT22;5860;52.018;8.536;2023-08-06T10:13:01;21.10;99.90
11609;DHT22;5860;52.018;8.536;2023-08-06T10:15:31;21.70;99.90
11609;DHT22;5860;52.018;8.536;2023-08-06T10:17:59;22.00;99.90
11609;DHT22;5860;52.018;8.536;2023-08-06T10:20:33;22.90;99.90
11609;DHT22;5860;52.018;8.536;2023-08-06T10:23:05;23.30;99.90
11609;DHT22;5860;52.018;8.536;2023-08-06T10:25:35;23.70;99.90
11609;DHT22;5860;52.018;8.536;2023-08-06T10:28:11;22.90;99.90
11609;DHT22;5860;52.018;8.536;2023-08-06T10:30:46;22.60;99.90
11609;DHT22;5860;52.018;8.536;2023-08-06T10:33:13;21.20;99.90
11609;DHT22;5860;52.018;8.536;2023-08-06T10:35:46;20.70;99.90
11609;DHT22;5860;52.018;8.536;2023-08-06T10:38:18;20.50;99.90
11609;DHT22;5860;52.018;8.536;2023-08-06T10:43:27;20.40;99.90
11609;DHT22;5860;52.018;8.536;2023-08-06T10:45:57;20.00;99.90
11609;DHT22;5860;52.018;8.536;2023-08-06T10:48:33;20.00;99.90
11609;DHT22;5860;52.018;8.536;2023-08-06T10:51:01;19.90;99.90
11609;DHT22;5860;52.018;8.536;2023-08-06T10:53:29;19.90;99.90
11609;DHT22;5860;52.018;8.536;2023-08-06T10:56:00;20.20;99.90
11609;DHT22;5860;52.018;8.536;2023-08-06T10:58:33;20.70;99.90
11609;DHT22;5860;52.018;8.536;2023-08-06T11:01:00;20.40;99.90
11609;DHT22;5860;52.018;8.536;2023-08-06T11:03:28;20.40;99.90
11609;DHT22;5860;52.018;8.536;2023-08-06T11:05:56;20.60;99.90
11609;DHT22;5860;52.018;8.536;2023-08-06T11:08:27;20.80;99.90
11609;DHT22;5860;52.018;8.536;2023-08-06T11:10:56;20.30;99.90
11609;DHT22;5860;52.018;8.536;2023-08-06T11:13:34;20.70;99.90
11609;DHT22;5860;52.018;8.536;2023-08-06T11:16:01;21.00;99.90
11609;DHT22;5860;52.018;8.536;2023-08-06T11:18:28;20.80;99.90
11609;DHT22;5860;52.018;8.536;2023-08-06T11:20:59;20.80;99.90
11609;DHT22;5860;52.018;8.536;2023-08-06T11:23:29;20.70;99.90
11609;DHT22;5860;52.018;8.536;2023-08-06T11:25:57;20.80;99.90
11609;DHT22;5860;52.018;8.536;2023-08-06T11:28:24;20.70;99.90
11609;DHT22;5860;52.018;8.536;2023-08-06T11:30:52;20.90;99.90
11609;DHT22;5860;52.018;8.536;2023-08-06T11:33:26;21.00;99.90
11609;DHT22;5860;52.018;8.536;2023-08-06T11:35:57;21.10;99.90
11609;DHT22;5860;52.018;8.536;2023-08-06T11:38:28;21.60;99.90
11609;DHT22;5860;52.018;8.536;2023-08-06T11:40:56;21.50;99.90
11609;DHT22;5860;52.018;8.536;2023-08-06T11:43:23;21.50;99.90
11609;DHT22;5860;52.018;8.536;2023-08-06T11:45:50;21.50;99.90
11609;DHT22;5860;52.018;8.536;2023-08-06T11:48:19;21.50;99.90
11609;DHT22;5860;52.018;8.536;2023-08-06T11:50:46;21.50;99.90
11609;DHT22;5860;52.018;8.536;2023-08-06T11:53:14;21.50;99.90
11609;DHT22;5860;52.018;8.536;2023-08-06T11:55:41;21.40;99.90
11609;DHT22;5860;52.018;8.536;2023-08-06T11:58:10;21.40;99.90
11609;DHT22;5860;52.018;8.536;2023-08-06T12:00:40;21.30;99.90
11609;DHT22;5860;52.018;8.536;2023-08-06T12:03:07;21.50;99.90
11609;DHT22;5860;52.018;8.536;2023-08-06T12:05:34;21.80;99.90
11609;DHT22;5860;52.018;8.536;2023-08-06T12:08:02;22.10;99.90
11609;DHT22;5860;52.018;8.536;2023-08-06T12:10:31;22.10;99.90
11609;DHT22;5860;52.018;8.536;2023-08-06T12:12:59;22.10;99.90
11609;DHT22;5860;52.018;8.536;2023-08-06T12:15:26;22.40;99.90
11609;DHT22;5860;52.018;8.536;2023-08-06T12:17:53;22.90;99.90
11609;DHT22;5860;52.018;8.536;2023-08-06T12:20:20;23.10;99.90
11609;DHT22;5860;52.018;8.536;2023-08-06T12:22:47;23.00;99.90
11609;DHT22;5860;52.018;8.536;2023-08-06T12:25:15;22.90;99.90
11609;DHT22;5860;52.018;8.536;2023-08-06T12:27:43;22.40;99.90
11609;DHT22;5860;52.018;8.536;2023-08-06T12:30:11;22.10;99.90
11609;DHT22;5860;52.018;8.536;2023-08-06T12:32:39;21.70;99.90
11609;DHT22;5860;52.018;8.536;2023-08-06T12:35:07;21.80;99.90
11609;DHT22;5860;52.018;8.536;2023-08-06T12:37:34;21.50;99.90
11609;DHT22;5860;52.018;8.536;2023-08-06T12:40:01;21.70;99.90
11609;DHT22;5860;52.018;8.536;2023-08-06T12:42:50;21.50;99.90
11609;DHT22;5860;52.018;8.536;2023-08-06T12:45:18;21.60;99.90
11609;DHT22;5860;52.018;8.536;2023-08-06T12:47:47;21.50;99.90
11609;DHT22;5860;52.018;8.536;2023-08-06T12:50:16;21.40;99.90
11609;DHT22;5860;52.018;8.536;2023-08-06T12:52:44;21.50;99.90
11609;DHT22;5860;52.018;8.536;2023-08-06T12:55:11;21.40;99.90
11609;DHT22;5860;52.018;8.536;2023-08-06T12:57:38;21.50;99.90
11609;DHT22;5860;52.018;8.536;2023-08-06T13:00:21;21.40;99.90
11609;DHT22;5860;52.018;8.536;2023-08-06T13:02:48;21.60;99.90
11609;DHT22;5860;52.018;8.536;2023-08-06T13:05:15;21.70;99.90
11609;DHT22;5860;52.018;8.536;2023-08-06T13:07:42;21.60;99.90
11609;DHT22;5860;52.018;8.536;2023-08-06T13:10:09;21.40;99.90
11609;DHT22;5860;52.018;8.536;2023-08-06T13:12:36;21.40;99.90
11609;DHT22;5860;52.018;8.536;2023-08-06T13:15:03;21.70;99.90
11609;DHT22;5860;52.018;8.536;2023-08-06T13:17:32;21.90;99.90
11609;DHT22;5860;52.018;8.536;2023-08-06T13:19:59;22.00;99.90
11609;DHT22;5860;52.018;8.536;2023-08-06T13:22:26;21.90;99.90
11609;DHT22;5860;52.018;8.536;2023-08-06T13:24:54;21.80;99.90
11609;DHT22;5860;52.018;8.536;2023-08-06T13:27:21;21.50;99.90
11609;DHT22;5860;52.018;8.536;2023-08-06T13:29:47;21.50;99.90
11609;DHT22;5860;52.018;8.536;2023-08-06T13:32:14;21.50;99.90
11609;DHT22;5860;52.018;8.536;2023-08-06T13:34:41;21.30;99.90
11609;DHT22;5860;52.018;8.536;2023-08-06T13:37:08;21.20;99.90
11609;DHT22;5860;52.018;8.536;2023-08-06T13:39:35;21.10;99.90
11609;DHT22;5860;52.018;8.536;2023-08-06T13:42:02;20.80;99.90
11609;DHT22;5860;52.018;8.536;2023-08-06T13:44:29;20.10;99.90
11609;DHT22;5860;52.018;8.536;2023-08-06T13:46:55;19.40;99.90
11609;DHT22;5860;52.018;8.536;2023-08-06T13:49:23;19.30;99.90
11609;DHT22;5860;52.018;8.536;2023-08-06T13:51:50;19.20;99.90
11609;DHT22;5860;52.018;8.536;2023-08-06T13:54:17;18.80;99.90
11609;DHT22;5860;52.018;8.536;2023-08-06T13:56:44;18.30;99.90
11609;DHT22;5860;52.018;8.536;2023-08-06T13:59:11;18.10;99.90
11609;DHT22;5860;52.018;8.536;2023-08-06T14:01:40;17.80;99.90
11609;DHT22;5860;52.018;8.536;2023-08-06T14:04:17;17.50;99.90
11609;DHT22;5860;52.018;8.536;2023-08-06T14:06:44;17.20;99.90
11609;DHT22;5860;52.018;8.536;2023-08-06T14:09:11;16.90;99.90
11609;DHT22;5860;52.018;8.536;2023-08-06T14:11:40;16.70;99.90
11609;DHT22;5860;52.018;8.536;2023-08-06T14:14:07;16.70;99.90
11609;DHT22;5860;52.018;8.536;2023-08-06T14:16:34;16.50;99.90
11609;DHT22;5860;52.018;8.536;2023-08-06T14:19:01;16.40;99.90
11609;DHT22;5860;52.018;8.536;2023-08-06T14:21:29;16.30;99.90
11609;DHT22;5860;52.018;8.536;2023-08-06T14:23:56;16.50;99.90
11609;DHT22;5860;52.018;8.536;2023-08-06T14:26:23;16.40;99.90
11609;DHT22;5860;52.018;8.536;2023-08-06T14:28:50;16.50;99.90
11609;DHT22;5860;52.018;8.536;2023-08-06T14:31:21;16.60;99.90
11609;DHT22;5860;52.018;8.536;2023-08-06T14:33:48;16.60;99.90
11609;DHT22;5860;52.018;8.536;2023-08-06T14:36:15;16.60;99.90
11609;DHT22;5860;52.018;8.536;2023-08-06T14:38:41;16.60;99.90
11609;DHT22;5860;52.018;8.536;2023-08-06T14:41:23;16.60;99.90
11609;DHT22;5860;52.018;8.536;2023-08-06T14:43:53;16.60;99.90
11609;DHT22;5860;52.018;8.536;2023-08-06T14:46:21;16.60;99.90
11609;DHT22;5860;52.018;8.536;2023-08-06T14:48:48;16.70;99.90
11609;DHT22;5860;52.018;8.536;2023-08-06T14:51:15;16.70;99.90
11609;DHT22;5860;52.018;8.536;2023-08-06T14:53:42;16.70;99.90
11609;DHT22;5860;52.018;8.536;2023-08-06T14:56:08;16.80;99.90
11609;DHT22;5860;52.018;8.536;2023-08-06T14:58:36;16.80;99.90
11609;DHT22;5860;52.018;8.536;2023-08-06T15:01:03;16.80;99.90
11609;DHT22;5860;52.018;8.536;2023-08-06T15:03:30;16.90;99.90
11609;DHT22;5860;52.018;8.536;2023-08-06T15:05:58;16.90;99.90
11609;DHT22;5860;52.018;8.536;2023-08-06T15:08:25;17.00;99.90
11609;DHT22;5860;52.018;8.536;2023-08-06T15:10:55;17.00;99.90
11609;DHT22;5860;52.018;8.536;2023-08-06T15:13:22;16.90;99.90
11609;DHT22;5860;52.018;8.536;2023-08-06T15:15:49;16.80;99.90
11609;DHT22;5860;52.018;8.536;2023-08-06T15:18:16;16.70;99.90
11609;DHT22;5860;52.018;8.536;2023-08-06T15:20:43;16.60;99.90
11609;DHT22;5860;52.018;8.536;2023-08-06T15:23:11;16.80;99.90
11609;DHT22;5860;52.018;8.536;2023-08-06T15:25:38;16.90;99.90
11609;DHT22;5860;52.018;8.536;2023-08-06T15:28:05;16.70;99.90
11609;DHT22;5860;52.018;8.536;2023-08-06T15:30:32;16.80;99.90
11609;DHT22;5860;52.018;8.536;2023-08-06T15:32:59;16.80;99.90
11609;DHT22;5860;52.018;8.536;2023-08-06T15:35:27;16.80;99.90
11609;DHT22;5860;52.018;8.536;2023-08-06T15:37:53;16.80;99.90
11609;DHT22;5860;52.018;8.536;2023-08-06T15:40:20;17.00;99.90
11609;DHT22;5860;52.018;8.536;2023-08-06T15:42:48;17.20;99.90
11609;DHT22;5860;52.018;8.536;2023-08-06T15:45:15;17.20;99.90
11609;DHT22;5860;52.018;8.536;2023-08-06T15:47:42;17.20;99.90
11609;DHT22;5860;52.018;8.536;2023-08-06T15:50:09;17.00;99.90
11609;DHT22;5860;52.018;8.536;2023-08-06T15:52:36;17.20;99.90
11609;DHT22;5860;52.018;8.536;2023-08-06T15:55:03;17.10;99.90
11609;DHT22;5860;52.018;8.536;2023-08-06T15:57:33;16.90;99.90
11609;DHT22;5860;52.018;8.536;2023-08-06T16:00:00;16.60;99.90
11609;DHT22;5860;52.018;8.536;2023-08-06T16:02:27;16.50;99.90
11609;DHT22;5860;52.018;8.536;2023-08-06T16:04:58;16.30;99.90